sensor_id;sensor_type;location;lat;lon;timestamp;P1;durP1;ratioP1;P2;durP2;ratioP2
28166;SDS011;15455;53.376;-6.262;2024-01-30T00:01:46;20.70;;;5.78;;
28166;SDS011;15455;53.376;-6.262;2024-01-30T00:04:32;12.00;;;5.90;;
28166;SDS011;15455;53.376;-6.262;2024-01-30T00:07:17;16.50;;;5.97;;
28166;SDS011;15455;53.376;-6.262;2024-01-30T00:10:03;16.77;;;7.47;;
28166;SDS011;15455;53.376;-6.262;2024-01-30T00:12:51;16.50;;;5.63;;
28166;SDS011;15455;53.376;-6.262;2024-01-30T00:15:37;14.65;;;5.50;;
28166;SDS011;15455;53.376;-6.262;2024-01-30T00:18:23;7.80;;;6.07;;
28166;SDS011;15455;53.376;-6.262;2024-01-30T00:21:08;13.90;;;4.43;;
28166;SDS011;15455;53.376;-6.262;2024-01-30T00:23:54;8.50;;;4.70;;
28166;SDS011;15455;53.376;-6.262;2024-01-30T00:26:39;12.02;;;3.78;;
28166;SDS011;15455;53.376;-6.262;2024-01-30T00:29:25;7.68;;;5.53;;
28166;SDS011;15455;53.376;-6.262;2024-01-30T00:32:15;14.40;;;6.00;;
28166;SDS011;15455;53.376;-6.262;2024-01-30T00:35:01;12.27;;;5.22;;
28166;SDS011;15455;53.376;-6.262;2024-01-30T00:37:47;19.42;;;6.05;;
28166;SDS011;15455;53.376;-6.262;2024-01-30T00:40:33;17.23;;;4.95;;
28166;SDS011;15455;53.376;-6.262;2024-01-30T00:43:18;17.88;;;5.63;;
28166;SDS011;15455;53.376;-6.262;2024-01-30T00:46:05;12.00;;;5.13;;
28166;SDS011;15455;53.376;-6.262;2024-01-30T00:48:50;8.75;;;5.22;;
28166;SDS011;15455;53.376;-6.262;2024-01-30T00:51:36;22.40;;;7.40;;
28166;SDS011;15455;53.376;-6.262;2024-01-30T00:54:21;8.38;;;5.20;;
28166;SDS011;15455;53.376;-6.262;2024-01-30T00:57:07;10.07;;;5.10;;
28166;SDS011;15455;53.376;-6.262;2024-01-30T00:59:53;13.00;;;5.55;;
28166;SDS011;15455;53.376;-6.262;2024-01-30T01:02:38;9.52;;;5.30;;
28166;SDS011;15455;53.376;-6.262;2024-01-30T01:05:25;8.60;;;6.03;;
28166;SDS011;15455;53.376;-6.262;2024-01-30T01:08:11;8.25;;;4.80;;
28166;SDS011;15455;53.376;-6.262;2024-01-30T01:10:56;7.85;;;4.63;;
28166;SDS011;15455;53.376;-6.262;2024-01-30T01:13:42;11.40;;;5.75;;
28166;SDS011;15455;53.376;-6.262;2024-01-30T01:16:27;18.83;;;6.15;;
28166;SDS011;15455;53.376;-6.262;2024-01-30T01:19:13;10.20;;;5.85;;
28166;SDS011;15455;53.376;-6.262;2024-01-30T01:21:59;14.40;;;6.78;;
28166;SDS011;15455;53.376;-6.262;2024-01-30T01:24:44;15.45;;;5.13;;
28166;SDS011;15455;53.376;-6.262;2024-01-30T01:27:30;16.67;;;5.68;;
28166;SDS011;15455;53.376;-6.262;2024-01-30T01:30:17;8.20;;;4.93;;
28166;SDS011;15455;53.376;-6.262;2024-01-30T01:33:08;18.98;;;5.43;;
28166;SDS011;15455;53.376;-6.262;2024-01-30T01:35:55;9.45;;;5.40;;
28166;SDS011;15455;53.376;-6.262;2024-01-30T01:38:41;14.93;;;5.88;;
28166;SDS011;15455;53.376;-6.262;2024-01-30T01:41:29;19.10;;;5.85;;
28166;SDS011;15455;53.376;-6.262;2024-01-30T01:44:17;15.45;;;4.90;;
28166;SDS011;15455;53.376;-6.262;2024-01-30T01:47:03;12.20;;;5.35;;
28166;SDS011;15455;53.376;-6.262;2024-01-30T01:49:49;11.45;;;5.43;;
28166;SDS011;15455;53.376;-6.262;2024-01-30T01:52:35;7.40;;;4.53;;
28166;SDS011;15455;53.376;-6.262;2024-01-30T01:55:22;10.70;;;5.45;;
28166;SDS011;15455;53.376;-6.262;2024-01-30T01:58:10;9.85;;;5.20;;
28166;SDS011;15455;53.376;-6.262;2024-01-30T02:00:58;13.63;;;5.43;;
28166;SDS011;15455;53.376;-6.262;2024-01-30T02:03:45;10.95;;;4.63;;
28166;SDS011;15455;53.376;-6.262;2024-01-30T02:06:31;9.77;;;4.97;;
28166;SDS011;15455;53.376;-6.262;2024-01-30T02:09:17;16.20;;;6.00;;
28166;SDS011;15455;53.376;-6.262;2024-01-30T02:12:03;10.77;;;4.35;;
28166;SDS011;15455;53.376;-6.262;2024-01-30T02:14:50;7.20;;;5.72;;
28166;SDS011;15455;53.376;-6.262;2024-01-30T02:17:36;24.85;;;6.70;;
28166;SDS011;15455;53.376;-6.262;2024-01-30T02:20:21;13.90;;;5.40;;
28166;SDS011;15455;53.376;-6.262;2024-01-30T02:23:13;19.60;;;5.13;;
28166;SDS011;15455;53.376;-6.262;2024-01-30T02:26:00;13.73;;;5.38;;
28166;SDS011;15455;53.376;-6.262;2024-01-30T02:28:46;9.02;;;5.30;;
28166;SDS011;15455;53.376;-6.262;2024-01-30T02:31:32;9.93;;;5.07;;
28166;SDS011;15455;53.376;-6.262;2024-01-30T02:34:17;9.32;;;6.03;;
28166;SDS011;15455;53.376;-6.262;2024-01-30T02:37:04;15.48;;;6.75;;
28166;SDS011;15455;53.376;-6.262;2024-01-30T02:39:50;8.88;;;5.38;;
28166;SDS011;15455;53.376;-6.262;2024-01-30T02:42:35;7.88;;;5.05;;
28166;SDS011;15455;53.376;-6.262;2024-01-30T02:45:21;19.20;;;5.60;;
28166;SDS011;15455;53.376;-6.262;2024-01-30T02:48:07;7.25;;;5.88;;
28166;SDS011;15455;53.376;-6.262;2024-01-30T02:50:53;11.60;;;6.47;;
28166;SDS011;15455;53.376;-6.262;2024-01-30T02:53:38;20.35;;;7.38;;
28166;SDS011;15455;53.376;-6.262;2024-01-30T02:56:24;9.75;;;6.05;;
28166;SDS011;15455;53.376;-6.262;2024-01-30T02:59:09;5.82;;;5.25;;
28166;SDS011;15455;53.376;-6.262;2024-01-30T03:01:55;15.57;;;6.55;;
28166;SDS011;15455;53.376;-6.262;2024-01-30T03:04:42;11.40;;;6.93;;
28166;SDS011;15455;53.376;-6.262;2024-01-30T03:07:27;17.27;;;6.38;;
28166;SDS011;15455;53.376;-6.262;2024-01-30T03:10:13;15.80;;;7.97;;
28166;SDS011;15455;53.376;-6.262;2024-01-30T03:12:59;9.70;;;6.53;;
28166;SDS011;15455;53.376;-6.262;2024-01-30T03:15:44;17.27;;;5.63;;
28166;SDS011;15455;53.376;-6.262;2024-01-30T03:18:30;14.57;;;7.47;;
28166;SDS011;15455;53.376;-6.262;2024-01-30T03:21:15;9.75;;;6.13;;
28166;SDS011;15455;53.376;-6.262;2024-01-30T03:24:01;17.63;;;7.65;;
28166;SDS011;15455;53.376;-6.262;2024-01-30T03:26:46;12.07;;;7.70;;
28166;SDS011;15455;53.376;-6.262;2024-01-30T03:29:32;11.10;;;6.00;;
28166;SDS011;15455;53.376;-6.262;2024-01-30T03:32:18;13.27;;;7.82;;
28166;SDS011;15455;53.376;-6.262;2024-01-30T03:35:03;7.75;;;7.07;;
28166;SDS011;15455;53.376;-6.262;2024-01-30T03:37:50;10.27;;;7.65;;
28166;SDS011;15455;53.376;-6.262;2024-01-30T03:40:35;8.00;;;7.38;;
28166;SDS011;15455;53.376;-6.262;2024-01-30T03:43:21;12.52;;;8.25;;
28166;SDS011;15455;53.376;-6.262;2024-01-30T03:46:06;7.82;;;7.07;;
28166;SDS011;15455;53.376;-6.262;2024-01-30T03:48:52;8.13;;;7.30;;
28166;SDS011;15455;53.376;-6.262;2024-01-30T03:51:38;7.93;;;7.20;;
28166;SDS011;15455;53.376;-6.262;2024-01-30T03:54:24;14.60;;;7.45;;
28166;SDS011;15455;53.376;-6.262;2024-01-30T03:57:10;8.40;;;7.72;;
28166;SDS011;15455;53.376;-6.262;2024-01-30T03:59:56;7.82;;;7.13;;
28166;SDS011;15455;53.376;-6.262;2024-01-30T04:02:45;10.18;;;7.45;;
28166;SDS011;15455;53.376;-6.262;2024-01-30T04:05:30;12.32;;;7.18;;
28166;SDS011;15455;53.376;-6.262;2024-01-30T04:08:16;7.88;;;5.95;;
28166;SDS011;15455;53.376;-6.262;2024-01-30T04:11:05;7.68;;;7.03;;
28166;SDS011;15455;53.376;-6.262;2024-01-30T04:13:51;9.18;;;7.28;;
28166;SDS011;15455;53.376;-6.262;2024-01-30T04:16:36;11.85;;;8.25;;
28166;SDS011;15455;53.376;-6.262;2024-01-30T04:19:22;10.57;;;7.22;;
28166;SDS011;15455;53.376;-6.262;2024-01-30T04:22:08;10.95;;;8.02;;
28166;SDS011;15455;53.376;-6.262;2024-01-30T04:24:54;10.98;;;6.43;;
28166;SDS011;15455;53.376;-6.262;2024-01-30T04:27:39;8.35;;;7.28;;
28166;SDS011;15455;53.376;-6.262;2024-01-30T04:30:25;15.88;;;8.43;;
28166;SDS011;15455;53.376;-6.262;2024-01-30T04:33:11;8.35;;;7.05;;
28166;SDS011;15455;53.376;-6.262;2024-01-30T04:35:56;8.10;;;6.95;;
28166;SDS011;15455;53.376;-6.262;2024-01-30T04:38:42;12.98;;;6.72;;
28166;SDS011;15455;53.376;-6.262;2024-01-30T04:41:28;11.30;;;7.38;;
28166;SDS011;15455;53.376;-6.262;2024-01-30T04:44:16;14.77;;;6.82;;
28166;SDS011;15455;53.376;-6.262;2024-01-30T04:47:02;7.53;;;6.72;;
28166;SDS011;15455;53.376;-6.262;2024-01-30T04:49:51;11.38;;;6.28;;
28166;SDS011;15455;53.376;-6.262;2024-01-30T04:52:37;7.03;;;6.43;;
28166;SDS011;15455;53.376;-6.262;2024-01-30T04:55:22;13.18;;;6.72;;
28166;SDS011;15455;53.376;-6.262;2024-01-30T04:58:08;5.60;;;5.15;;
28166;SDS011;15455;53.376;-6.262;2024-01-30T05:00:53;8.57;;;5.63;;
28166;SDS011;15455;53.376;-6.262;2024-01-30T05:03:39;10.95;;;7.13;;
28166;SDS011;15455;53.376;-6.262;2024-01-30T05:06:25;9.05;;;7.25;;
28166;SDS011;15455;53.376;-6.262;2024-01-30T05:09:12;5.45;;;4.97;;
28166;SDS011;15455;53.376;-6.262;2024-01-30T05:11:57;6.97;;;6.30;;
28166;SDS011;15455;53.376;-6.262;2024-01-30T05:14:43;8.32;;;5.40;;
28166;SDS011;15455;53.376;-6.262;2024-01-30T05:17:29;9.70;;;6.10;;
28166;SDS011;15455;53.376;-6.262;2024-01-30T05:20:14;4.30;;;4.10;;
28166;SDS011;15455;53.376;-6.262;2024-01-30T05:23:02;5.53;;;5.05;;
28166;SDS011;15455;53.376;-6.262;2024-01-30T05:25:47;5.25;;;4.43;;
28166;SDS011;15455;53.376;-6.262;2024-01-30T05:28:33;5.72;;;5.32;;
28166;SDS011;15455;53.376;-6.262;2024-01-30T05:31:19;9.30;;;4.55;;
28166;SDS011;15455;53.376;-6.262;2024-01-30T05:34:04;10.85;;;5.70;;
28166;SDS011;15455;53.376;-6.262;2024-01-30T05:36:52;6.07;;;5.55;;
28166;SDS011;15455;53.376;-6.262;2024-01-30T05:39:37;10.68;;;4.80;;
28166;SDS011;15455;53.376;-6.262;2024-01-30T05:42:22;12.13;;;5.28;;
28166;SDS011;15455;53.376;-6.262;2024-01-30T05:45:08;5.63;;;5.13;;
28166;SDS011;15455;53.376;-6.262;2024-01-30T05:47:54;11.00;;;6.40;;
28166;SDS011;15455;53.376;-6.262;2024-01-30T05:50:40;8.45;;;5.75;;
28166;SDS011;15455;53.376;-6.262;2024-01-30T05:53:25;10.88;;;5.35;;
28166;SDS011;15455;53.376;-6.262;2024-01-30T05:56:11;13.75;;;5.97;;
28166;SDS011;15455;53.376;-6.262;2024-01-30T05:58:56;7.00;;;5.53;;
28166;SDS011;15455;53.376;-6.262;2024-01-30T06:01:46;11.32;;;6.47;;
28166;SDS011;15455;53.376;-6.262;2024-01-30T06:04:33;14.20;;;5.90;;
28166;SDS011;15455;53.376;-6.262;2024-01-30T06:07:18;9.48;;;5.65;;
28166;SDS011;15455;53.376;-6.262;2024-01-30T06:10:05;15.45;;;5.65;;
28166;SDS011;15455;53.376;-6.262;2024-01-30T06:12:52;14.50;;;6.95;;
28166;SDS011;15455;53.376;-6.262;2024-01-30T06:15:37;10.23;;;5.18;;
28166;SDS011;15455;53.376;-6.262;2024-01-30T06:18:23;15.32;;;5.32;;
28166;SDS011;15455;53.376;-6.262;2024-01-30T06:21:09;8.60;;;4.25;;
28166;SDS011;15455;53.376;-6.262;2024-01-30T06:23:57;10.85;;;6.35;;
28166;SDS011;15455;53.376;-6.262;2024-01-30T06:26:43;7.18;;;5.68;;
28166;SDS011;15455;53.376;-6.262;2024-01-30T06:29:28;9.80;;;5.05;;
28166;SDS011;15455;53.376;-6.262;2024-01-30T06:32:14;6.35;;;5.75;;
28166;SDS011;15455;53.376;-6.262;2024-01-30T06:35:00;6.93;;;4.63;;
28166;SDS011;15455;53.376;-6.262;2024-01-30T06:37:47;12.57;;;5.18;;
28166;SDS011;15455;53.376;-6.262;2024-01-30T06:40:33;14.82;;;6.07;;
28166;SDS011;15455;53.376;-6.262;2024-01-30T06:43:18;17.25;;;6.97;;
28166;SDS011;15455;53.376;-6.262;2024-01-30T06:46:04;11.00;;;5.55;;
28166;SDS011;15455;53.376;-6.262;2024-01-30T06:48:50;9.25;;;5.65;;
28166;SDS011;15455;53.376;-6.262;2024-01-30T06:51:35;9.73;;;6.25;;
28166;SDS011;15455;53.376;-6.262;2024-01-30T06:54:21;12.63;;;6.43;;
28166;SDS011;15455;53.376;-6.262;2024-01-30T06:57:07;8.07;;;5.78;;
28166;SDS011;15455;53.376;-6.262;2024-01-30T06:59:57;12.30;;;6.40;;
28166;SDS011;15455;53.376;-6.262;2024-01-30T07:02:42;11.38;;;7.47;;
28166;SDS011;15455;53.376;-6.262;2024-01-30T07:05:28;14.95;;;6.30;;
28166;SDS011;15455;53.376;-6.262;2024-01-30T07:08:14;14.48;;;6.45;;
28166;SDS011;15455;53.376;-6.262;2024-01-30T07:11:02;16.48;;;6.63;;
28166;SDS011;15455;53.376;-6.262;2024-01-30T07:13:48;9.27;;;6.20;;
28166;SDS011;15455;53.376;-6.262;2024-01-30T07:16:35;9.40;;;5.70;;
28166;SDS011;15455;53.376;-6.262;2024-01-30T07:19:21;6.68;;;5.85;;
28166;SDS011;15455;53.376;-6.262;2024-01-30T07:22:06;15.48;;;7.60;;
28166;SDS011;15455;53.376;-6.262;2024-01-30T07:24:53;16.25;;;5.85;;
28166;SDS011;15455;53.376;-6.262;2024-01-30T07:27:38;5.25;;;4.85;;
28166;SDS011;15455;53.376;-6.262;2024-01-30T07:30:24;7.75;;;4.68;;
28166;SDS011;15455;53.376;-6.262;2024-01-30T07:33:10;11.85;;;5.97;;
28166;SDS011;15455;53.376;-6.262;2024-01-30T07:35:55;8.52;;;6.13;;
28166;SDS011;15455;53.376;-6.262;2024-01-30T07:38:40;8.52;;;5.45;;
28166;SDS011;15455;53.376;-6.262;2024-01-30T07:41:26;12.38;;;6.43;;
28166;SDS011;15455;53.376;-6.262;2024-01-30T07:44:12;17.23;;;6.68;;
28166;SDS011;15455;53.376;-6.262;2024-01-30T07:46:57;6.75;;;6.15;;
28166;SDS011;15455;53.376;-6.262;2024-01-30T07:49:43;10.32;;;6.88;;
28166;SDS011;15455;53.376;-6.262;2024-01-30T07:52:29;17.33;;;7.70;;
28166;SDS011;15455;53.376;-6.262;2024-01-30T07:55:15;19.80;;;8.20;;
28166;SDS011;15455;53.376;-6.262;2024-01-30T07:58:00;10.48;;;7.85;;
28166;SDS011;15455;53.376;-6.262;2024-01-30T08:00:47;12.15;;;7.00;;
28166;SDS011;15455;53.376;-6.262;2024-01-30T08:03:32;6.47;;;5.90;;
28166;SDS011;15455;53.376;-6.262;2024-01-30T08:06:19;12.57;;;7.05;;
28166;SDS011;15455;53.376;-6.262;2024-01-30T08:09:05;8.35;;;5.45;;
28166;SDS011;15455;53.376;-6.262;2024-01-30T08:11:51;15.07;;;8.65;;
28166;SDS011;15455;53.376;-6.262;2024-01-30T08:14:36;14.77;;;8.23;;
28166;SDS011;15455;53.376;-6.262;2024-01-30T08:17:22;8.43;;;7.40;;
28166;SDS011;15455;53.376;-6.262;2024-01-30T08:20:07;9.05;;;8.25;;
28166;SDS011;15455;53.376;-6.262;2024-01-30T08:22:56;15.38;;;7.82;;
28166;SDS011;15455;53.376;-6.262;2024-01-30T08:25:42;13.70;;;7.38;;
28166;SDS011;15455;53.376;-6.262;2024-01-30T08:28:27;11.07;;;7.97;;
28166;SDS011;15455;53.376;-6.262;2024-01-30T08:31:13;8.48;;;7.68;;
28166;SDS011;15455;53.376;-6.262;2024-01-30T08:33:59;11.02;;;8.80;;
28166;SDS011;15455;53.376;-6.262;2024-01-30T08:36:44;17.67;;;7.10;;
28166;SDS011;15455;53.376;-6.262;2024-01-30T08:39:30;13.57;;;8.93;;
28166;SDS011;15455;53.376;-6.262;2024-01-30T08:42:16;11.35;;;8.60;;
28166;SDS011;15455;53.376;-6.262;2024-01-30T08:45:07;24.83;;;8.40;;
28166;SDS011;15455;53.376;-6.262;2024-01-30T08:47:54;10.20;;;9.27;;
28166;SDS011;15455;53.376;-6.262;2024-01-30T08:50:40;16.33;;;8.32;;
28166;SDS011;15455;53.376;-6.262;2024-01-30T08:53:25;15.20;;;9.00;;
28166;SDS011;15455;53.376;-6.262;2024-01-30T08:56:11;14.85;;;8.05;;
28166;SDS011;15455;53.376;-6.262;2024-01-30T08:58:57;12.07;;;10.45;;
28166;SDS011;15455;53.376;-6.262;2024-01-30T09:01:43;10.75;;;9.98;;
28166;SDS011;15455;53.376;-6.262;2024-01-30T09:04:40;9.57;;;8.55;;
28166;SDS011;15455;53.376;-6.262;2024-01-30T09:07:26;10.48;;;9.60;;
28166;SDS011;15455;53.376;-6.262;2024-01-30T09:10:12;10.98;;;9.90;;
28166;SDS011;15455;53.376;-6.262;2024-01-30T09:12:59;10.32;;;8.88;;
28166;SDS011;15455;53.376;-6.262;2024-01-30T09:15:45;13.88;;;10.45;;
28166;SDS011;15455;53.376;-6.262;2024-01-30T09:18:30;13.45;;;11.73;;
28166;SDS011;15455;53.376;-6.262;2024-01-30T09:21:16;16.23;;;10.45;;
28166;SDS011;15455;53.376;-6.262;2024-01-30T09:24:02;16.08;;;11.80;;
28166;SDS011;15455;53.376;-6.262;2024-01-30T09:26:51;12.32;;;11.43;;
28166;SDS011;15455;53.376;-6.262;2024-01-30T09:29:37;14.18;;;12.25;;
28166;SDS011;15455;53.376;-6.262;2024-01-30T09:32:23;20.17;;;11.45;;
28166;SDS011;15455;53.376;-6.262;2024-01-30T09:35:08;13.18;;;9.57;;
28166;SDS011;15455;53.376;-6.262;2024-01-30T09:37:55;12.95;;;11.68;;
28166;SDS011;15455;53.376;-6.262;2024-01-30T09:40:42;12.30;;;11.05;;
28166;SDS011;15455;53.376;-6.262;2024-01-30T09:43:28;13.82;;;11.32;;
28166;SDS011;15455;53.376;-6.262;2024-01-30T09:46:18;15.63;;;9.68;;
28166;SDS011;15455;53.376;-6.262;2024-01-30T09:49:08;11.80;;;10.48;;
28166;SDS011;15455;53.376;-6.262;2024-01-30T09:51:54;12.55;;;10.57;;
28166;SDS011;15455;53.376;-6.262;2024-01-30T09:54:41;14.02;;;12.93;;
28166;SDS011;15455;53.376;-6.262;2024-01-30T09:57:27;13.68;;;11.65;;
28166;SDS011;15455;53.376;-6.262;2024-01-30T10:00:12;13.15;;;8.73;;
28166;SDS011;15455;53.376;-6.262;2024-01-30T10:02:58;11.90;;;10.55;;
28166;SDS011;15455;53.376;-6.262;2024-01-30T10:05:44;17.48;;;12.45;;
28166;SDS011;15455;53.376;-6.262;2024-01-30T10:08:37;21.05;;;12.18;;
28166;SDS011;15455;53.376;-6.262;2024-01-30T10:11:23;14.40;;;12.52;;
28166;SDS011;15455;53.376;-6.262;2024-01-30T10:14:11;13.50;;;12.20;;
28166;SDS011;15455;53.376;-6.262;2024-01-30T10:16:57;13.95;;;12.68;;
28166;SDS011;15455;53.376;-6.262;2024-01-30T10:19:43;14.68;;;13.27;;
28166;SDS011;15455;53.376;-6.262;2024-01-30T10:22:29;13.20;;;12.00;;
28166;SDS011;15455;53.376;-6.262;2024-01-30T10:25:15;17.95;;;13.07;;
28166;SDS011;15455;53.376;-6.262;2024-01-30T10:28:01;12.85;;;11.57;;
28166;SDS011;15455;53.376;-6.262;2024-01-30T10:30:56;11.80;;;10.88;;
28166;SDS011;15455;53.376;-6.262;2024-01-30T10:33:45;14.15;;;13.23;;
28166;SDS011;15455;53.376;-6.262;2024-01-30T10:36:31;15.88;;;12.07;;
28166;SDS011;15455;53.376;-6.262;2024-01-30T10:39:24;13.65;;;12.40;;
28166;SDS011;15455;53.376;-6.262;2024-01-30T10:42:15;24.25;;;13.70;;
28166;SDS011;15455;53.376;-6.262;2024-01-30T10:45:06;14.98;;;13.43;;
28166;SDS011;15455;53.376;-6.262;2024-01-30T10:47:59;15.65;;;12.63;;
28166;SDS011;15455;53.376;-6.262;2024-01-30T10:50:45;16.45;;;12.63;;
28166;SDS011;15455;53.376;-6.262;2024-01-30T10:53:44;12.75;;;11.50;;
28166;SDS011;15455;53.376;-6.262;2024-01-30T10:56:32;19.65;;;10.82;;
28166;SDS011;15455;53.376;-6.262;2024-01-30T10:59:18;15.00;;;10.85;;
28166;SDS011;15455;53.376;-6.262;2024-01-30T11:02:05;21.92;;;11.82;;
28166;SDS011;15455;53.376;-6.262;2024-01-30T11:04:56;13.65;;;9.63;;
28166;SDS011;15455;53.376;-6.262;2024-01-30T11:07:44;15.85;;;9.27;;
28166;SDS011;15455;53.376;-6.262;2024-01-30T11:10:31;10.15;;;8.18;;
28166;SDS011;15455;53.376;-6.262;2024-01-30T11:13:18;14.95;;;7.05;;
28166;SDS011;15455;53.376;-6.262;2024-01-30T11:16:04;15.02;;;6.32;;
28166;SDS011;15455;53.376;-6.262;2024-01-30T11:18:50;8.77;;;4.72;;
28166;SDS011;15455;53.376;-6.262;2024-01-30T11:21:43;9.77;;;5.32;;
28166;SDS011;15455;53.376;-6.262;2024-01-30T11:24:28;11.63;;;5.25;;
28166;SDS011;15455;53.376;-6.262;2024-01-30T11:27:14;5.05;;;4.10;;
28166;SDS011;15455;53.376;-6.262;2024-01-30T11:30:01;16.67;;;4.55;;
28166;SDS011;15455;53.376;-6.262;2024-01-30T11:36:00;5.20;;;3.78;;
28166;SDS011;15455;53.376;-6.262;2024-01-30T11:38:46;15.85;;;3.90;;
28166;SDS011;15455;53.376;-6.262;2024-01-30T11:41:32;11.10;;;4.47;;
28166;SDS011;15455;53.376;-6.262;2024-01-30T11:44:21;11.10;;;3.95;;
28166;SDS011;15455;53.376;-6.262;2024-01-30T11:47:08;11.48;;;3.00;;
28166;SDS011;15455;53.376;-6.262;2024-01-30T11:49:55;9.70;;;2.78;;
28166;SDS011;15455;53.376;-6.262;2024-01-30T11:52:45;12.10;;;3.15;;
28166;SDS011;15455;53.376;-6.262;2024-01-30T11:55:30;8.13;;;2.67;;
28166;SDS011;15455;53.376;-6.262;2024-01-30T11:58:19;10.13;;;2.65;;
28166;SDS011;15455;53.376;-6.262;2024-01-30T12:01:04;5.25;;;2.88;;
28166;SDS011;15455;53.376;-6.262;2024-01-30T12:03:50;3.13;;;2.47;;
28166;SDS011;15455;53.376;-6.262;2024-01-30T12:06:36;6.70;;;2.47;;
28166;SDS011;15455;53.376;-6.262;2024-01-30T12:09:23;9.25;;;2.63;;
28166;SDS011;15455;53.376;-6.262;2024-01-30T12:12:09;6.40;;;2.70;;
28166;SDS011;15455;53.376;-6.262;2024-01-30T12:14:57;11.45;;;3.38;;
28166;SDS011;15455;53.376;-6.262;2024-01-30T12:17:43;15.00;;;3.85;;
28166;SDS011;15455;53.376;-6.262;2024-01-30T12:20:29;6.25;;;3.60;;
28166;SDS011;15455;53.376;-6.262;2024-01-30T12:23:15;6.72;;;4.40;;
28166;SDS011;15455;53.376;-6.262;2024-01-30T12:26:01;7.88;;;4.40;;
28166;SDS011;15455;53.376;-6.262;2024-01-30T12:28:49;14.57;;;3.60;;
28166;SDS011;15455;53.376;-6.262;2024-01-30T12:31:35;11.55;;;5.20;;
28166;SDS011;15455;53.376;-6.262;2024-01-30T12:34:21;18.10;;;6.35;;
28166;SDS011;15455;53.376;-6.262;2024-01-30T12:37:07;12.80;;;6.25;;
28166;SDS011;15455;53.376;-6.262;2024-01-30T12:39:53;7.97;;;4.82;;
28166;SDS011;15455;53.376;-6.262;2024-01-30T12:42:39;15.57;;;5.78;;
28166;SDS011;15455;53.376;-6.262;2024-01-30T12:45:25;6.85;;;5.63;;
28166;SDS011;15455;53.376;-6.262;2024-01-30T12:48:11;5.18;;;4.10;;
28166;SDS011;15455;53.376;-6.262;2024-01-30T12:50:56;8.45;;;3.45;;
28166;SDS011;15455;53.376;-6.262;2024-01-30T12:53:42;9.13;;;4.03;;
28166;SDS011;15455;53.376;-6.262;2024-01-30T12:56:28;3.28;;;2.92;;
28166;SDS011;15455;53.376;-6.262;2024-01-30T12:59:14;7.30;;;2.40;;
28166;SDS011;15455;53.376;-6.262;2024-01-30T13:02:00;11.38;;;2.63;;
28166;SDS011;15455;53.376;-6.262;2024-01-30T13:04:46;8.52;;;2.10;;
28166;SDS011;15455;53.376;-6.262;2024-01-30T13:07:34;8.35;;;1.80;;
28166;SDS011;15455;53.376;-6.262;2024-01-30T13:10:20;4.15;;;1.60;;
28166;SDS011;15455;53.376;-6.262;2024-01-30T13:13:06;6.40;;;1.75;;
28166;SDS011;15455;53.376;-6.262;2024-01-30T13:16:01;2.95;;;1.75;;
28166;SDS011;15455;53.376;-6.262;2024-01-30T13:18:46;5.57;;;1.20;;
28166;SDS011;15455;53.376;-6.262;2024-01-30T13:21:32;5.30;;;1.73;;
28166;SDS011;15455;53.376;-6.262;2024-01-30T13:24:17;7.70;;;2.13;;
28166;SDS011;15455;53.376;-6.262;2024-01-30T13:27:07;8.60;;;2.17;;
28166;SDS011;15455;53.376;-6.262;2024-01-30T13:29:53;4.93;;;1.10;;
28166;SDS011;15455;53.376;-6.262;2024-01-30T13:32:39;6.88;;;1.23;;
28166;SDS011;15455;53.376;-6.262;2024-01-30T13:35:26;5.13;;;1.55;;
28166;SDS011;15455;53.376;-6.262;2024-01-30T13:38:11;3.67;;;1.60;;
28166;SDS011;15455;53.376;-6.262;2024-01-30T13:40:59;5.03;;;1.55;;
28166;SDS011;15455;53.376;-6.262;2024-01-30T13:43:45;2.63;;;1.15;;
28166;SDS011;15455;53.376;-6.262;2024-01-30T13:46:31;3.00;;;1.40;;
28166;SDS011;15455;53.376;-6.262;2024-01-30T13:49:17;4.68;;;1.38;;
28166;SDS011;15455;53.376;-6.262;2024-01-30T13:52:03;7.72;;;1.33;;
28166;SDS011;15455;53.376;-6.262;2024-01-30T13:54:48;5.70;;;0.75;;
28166;SDS011;15455;53.376;-6.262;2024-01-30T13:57:35;3.25;;;1.15;;
28166;SDS011;15455;53.376;-6.262;2024-01-30T14:00:21;7.43;;;2.53;;
28166;SDS011;15455;53.376;-6.262;2024-01-30T14:03:08;4.30;;;1.25;;
28166;SDS011;15455;53.376;-6.262;2024-01-30T14:05:53;4.28;;;1.10;;
28166;SDS011;15455;53.376;-6.262;2024-01-30T14:08:39;3.80;;;0.57;;
28166;SDS011;15455;53.376;-6.262;2024-01-30T14:11:28;4.70;;;1.25;;
28166;SDS011;15455;53.376;-6.262;2024-01-30T14:14:14;4.82;;;2.35;;
28166;SDS011;15455;53.376;-6.262;2024-01-30T14:17:02;7.35;;;1.35;;
28166;SDS011;15455;53.376;-6.262;2024-01-30T14:19:48;4.57;;;1.20;;
28166;SDS011;15455;53.376;-6.262;2024-01-30T14:22:34;2.63;;;0.68;;
28166;SDS011;15455;53.376;-6.262;2024-01-30T14:25:19;2.55;;;0.90;;
28166;SDS011;15455;53.376;-6.262;2024-01-30T14:28:05;1.45;;;0.73;;
28166;SDS011;15455;53.376;-6.262;2024-01-30T14:30:52;4.55;;;0.80;;
28166;SDS011;15455;53.376;-6.262;2024-01-30T14:33:37;2.33;;;0.70;;
28166;SDS011;15455;53.376;-6.262;2024-01-30T14:36:25;1.88;;;0.95;;
28166;SDS011;15455;53.376;-6.262;2024-01-30T14:39:13;3.13;;;0.73;;
28166;SDS011;15455;53.376;-6.262;2024-01-30T14:41:59;4.22;;;1.10;;
28166;SDS011;15455;53.376;-6.262;2024-01-30T14:44:45;3.22;;;0.50;;
28166;SDS011;15455;53.376;-6.262;2024-01-30T14:47:30;3.53;;;0.98;;
28166;SDS011;15455;53.376;-6.262;2024-01-30T14:50:16;6.22;;;0.93;;
28166;SDS011;15455;53.376;-6.262;2024-01-30T14:53:02;5.32;;;0.85;;
28166;SDS011;15455;53.376;-6.262;2024-01-30T14:55:48;4.03;;;0.90;;
28166;SDS011;15455;53.376;-6.262;2024-01-30T14:58:34;6.47;;;0.82;;
28166;SDS011;15455;53.376;-6.262;2024-01-30T15:01:19;7.75;;;1.27;;
28166;SDS011;15455;53.376;-6.262;2024-01-30T15:04:05;3.85;;;1.08;;
28166;SDS011;15455;53.376;-6.262;2024-01-30T15:06:51;2.60;;;1.02;;
28166;SDS011;15455;53.376;-6.262;2024-01-30T15:09:37;4.55;;;1.05;;
28166;SDS011;15455;53.376;-6.262;2024-01-30T15:12:22;3.92;;;0.95;;
28166;SDS011;15455;53.376;-6.262;2024-01-30T15:15:08;10.38;;;1.38;;
28166;SDS011;15455;53.376;-6.262;2024-01-30T15:17:55;3.40;;;0.95;;
28166;SDS011;15455;53.376;-6.262;2024-01-30T15:20:41;6.15;;;1.48;;
28166;SDS011;15455;53.376;-6.262;2024-01-30T15:23:27;8.25;;;1.17;;
28166;SDS011;15455;53.376;-6.262;2024-01-30T15:26:13;6.32;;;1.35;;
28166;SDS011;15455;53.376;-6.262;2024-01-30T15:28:59;5.75;;;1.00;;
28166;SDS011;15455;53.376;-6.262;2024-01-30T15:31:45;7.53;;;1.20;;
28166;SDS011;15455;53.376;-6.262;2024-01-30T15:34:30;4.45;;;1.27;;
28166;SDS011;15455;53.376;-6.262;2024-01-30T15:37:16;5.50;;;1.60;;
28166;SDS011;15455;53.376;-6.262;2024-01-30T15:40:02;7.82;;;0.98;;
28166;SDS011;15455;53.376;-6.262;2024-01-30T15:42:51;4.60;;;1.08;;
28166;SDS011;15455;53.376;-6.262;2024-01-30T15:45:37;5.30;;;1.52;;
28166;SDS011;15455;53.376;-6.262;2024-01-30T15:48:23;10.35;;;1.65;;
28166;SDS011;15455;53.376;-6.262;2024-01-30T15:51:09;2.83;;;1.25;;
28166;SDS011;15455;53.376;-6.262;2024-01-30T15:53:54;2.60;;;0.75;;
28166;SDS011;15455;53.376;-6.262;2024-01-30T15:56:40;2.75;;;1.00;;
28166;SDS011;15455;53.376;-6.262;2024-01-30T15:59:26;6.05;;;2.10;;
28166;SDS011;15455;53.376;-6.262;2024-01-30T16:02:12;4.65;;;1.30;;
28166;SDS011;15455;53.376;-6.262;2024-01-30T16:04:59;12.23;;;1.42;;
28166;SDS011;15455;53.376;-6.262;2024-01-30T16:07:47;6.88;;;1.60;;
28166;SDS011;15455;53.376;-6.262;2024-01-30T16:10:34;3.38;;;1.77;;
28166;SDS011;15455;53.376;-6.262;2024-01-30T16:13:19;2.60;;;1.20;;
28166;SDS011;15455;53.376;-6.262;2024-01-30T16:16:05;3.63;;;1.50;;
28166;SDS011;15455;53.376;-6.262;2024-01-30T16:18:51;3.83;;;1.85;;
28166;SDS011;15455;53.376;-6.262;2024-01-30T16:21:36;6.00;;;2.08;;